CDT,Max TemperatureF,Mean TemperatureF,Min TemperatureF,Max Dew PointF,MeanDew PointF,Min DewpointF,Max Humidity, Mean Humidity, Min Humidity, Max Sea Level PressureIn, Mean Sea Level PressureIn, Min Sea Level PressureIn, Max VisibilityMiles, Mean VisibilityMiles, Min VisibilityMiles, Max Wind SpeedMPH, Mean Wind SpeedMPH, Max Gust SpeedMPH,PrecipitationIn, CloudCover, Events, WindDirDegrees
2013-4-1,79,67,55,59,55,50,100,69,37,30.10,30.02,29.96,10,6,0,12,4,15,0.00,4,Fog,21
2013-4-2,78,67,55,63,58,53,93,70,46,30.11,30.02,29.93,10,7,2,10,3,16,0.36,3,Rain,110
2013-4-3,66,59,51,64,59,49,97,92,86,30.03,29.90,29.69,10,6,2,21,10,28,1.41,8,Rain-Thunderstorm,38
2013-4-4,56,52,48,49,46,42,93,82,71,30.10,30.03,29.96,10,7,2,17,10,24,0.00,8,,324
2013-4-5,70,58,46,51,45,41,93,65,37,30.20,30.13,30.09,10,10,10,17,8,22,0.00,2,,356
2013-4-6,71,60,48,55,50,44,93,72,51,30.16,30.10,30.04,10,10,10,16,5,21,0.00,2,,173
2013-4-7,76,65,54,61,58,52,93,74,54,30.08,30.02,29.96,10,10,7,18,6,25,0.00,3,,173
2013-4-8,79,70,61,63,61,60,100,77,54,29.98,29.94,29.90,10,9,5,21,7,30,0.00,2,,161
2013-4-9,82,75,68,70,68,64,90,80,69,29.95,29.91,29.86,10,9,6,25,11,35,0.00,8,,158
2013-4-10,81,77,73,70,69,68,84,77,69,29.90,29.84,29.78,10,10,9,25,14,35,0.00,7,,162
2013-4-11,75,64,52,70,55,46,93,78,63,29.87,29.77,29.68,10,8,2,26,10,32,0.55,6,Rain,337
2013-4-12,76,62,48,54,47,41,93,61,29,30.01,29.95,29.88,10,10,10,15,3,21,0.00,0,,16
2013-4-13,78,65,51,56,49,45,83,58,32,30.03,29.94,29.86,10,10,6,13,4,23,0.34,2,Rain-Thunderstorm,91
2013-4-14,76,67,57,66,60,53,93,79,64,29.85,29.79,29.73,10,7,1,22,5,29,1.90,6,Rain-Thunderstorm,81
2013-4-15,81,72,63,72,67,61,93,80,67,29.93,29.86,29.80,10,7,0,10,4,18,0.00,6,Fog,165
2013-4-16,82,78,74,72,71,70,93,81,69,30.04,30.00,29.92,10,9,3,16,7,24,0.00,7,,162
2013-4-17,85,79,73,72,70,68,93,79,65,30.04,29.99,29.90,10,9,4,18,8,25,0.00,5,,152
2013-4-18,81,67,53,72,65,51,93,81,69,29.95,29.84,29.76,10,9,3,25,15,36,0.22,8,Rain,188
2013-4-19,61,54,47,49,38,33,83,60,36,30.21,30.10,29.97,10,10,10,25,13,35,T,2,Rain,342
2013-4-20,70,57,43,50,40,34,89,58,27,30.28,30.20,30.12,10,10,10,14,3,18,0.00,0,,55
2013-4-21,75,61,46,54,47,44,93,64,35,30.21,30.16,30.09,10,10,10,12,3,18,0.00,0,,60
2013-4-22,78,65,51,61,53,49,89,64,39,30.14,30.07,30.00,10,10,10,10,2,14,0.00,0,,85
2013-4-23,82,74,66,68,66,63,93,78,62,30.05,30.00,29.95,10,10,4,20,8,28,0.00,5,,168
2013-4-24,72,64,56,70,61,49,93,83,72,30.22,30.07,29.96,10,8,0,26,11,33,1.08,8,Fog-Rain-Thunderstorm,10
2013-4-25,74,64,53,55,50,47,89,67,44,30.32,30.25,30.20,10,10,10,17,7,21,0.00,5,,44
2013-4-26,78,67,56,67,60,50,90,77,64,30.26,30.21,30.17,10,10,10,12,4,16,0.00,4,,150
2013-4-27,82,76,70,69,66,63,93,74,54,30.17,30.11,30.01,10,10,8,17,8,23,0.00,4,,178
2013-4-28,79,72,65,70,66,61,93,78,62,30.04,29.99,29.92,10,10,6,13,4,20,T,4,Rain,203
2013-4-29,83,73,62,67,63,59,100,77,54,29.97,29.93,29.86,10,6,0,8,1,12,0.00,3,Fog,62
2013-4-30,76,71,65,68,66,63,100,89,78,29.89,29.86,29.82,10,6,0,10,3,17,0.46,6,Fog-Rain,88